Time;durP1;ratioP1;P1;durP2;ratioP2;P2;SDS_P1;SDS_P2;PMS_P1;PMS_P2;Temp;Humidity;BMP_temperature;BMP_pressure;BME280_temperature;BME280_humidity;BME280_pressure;Samples;Min_cycle;Max_cycle;Signal;HPM_P1;HPM_P2
2023/10/24 00:01:35;;;;;;;4.90;4.20;;;;;;;;;;4960453;28;94592;-65
2023/10/24 00:04:01;;;;;;;5.57;4.20;;;;;;;;;;4965153;28;92953;-65
2023/10/24 00:06:27;;;;;;;4.75;4.00;;;;;;;;;;4966954;28;93193;-64
2023/10/24 00:08:54;;;;;;;7.47;4.47;;;;;;;;;;4966277;28;93712;-65
2023/10/24 00:11:20;;;;;;;6.20;4.50;;;;;;;;;;4966855;28;92416;-64
2023/10/24 00:13:47;;;;;;;5.78;4.65;;;;;;;;;;4959511;28;93129;-64
2023/10/24 00:16:13;;;;;;;6.20;4.43;;;;;;;;;;4968799;28;96872;-65
2023/10/24 00:18:39;;;;;;;4.95;4.45;;;;;;;;;;4964201;28;95518;-65
2023/10/24 00:21:06;;;;;;;12.63;5.47;;;;;;;;;;4961584;28;92769;-65
2023/10/24 00:23:32;;;;;;;8.27;4.95;;;;;;;;;;4968628;28;92527;-64
2023/10/24 00:25:59;;;;;;;6.38;5.22;;;;;;;;;;4963035;28;93385;-65
2023/10/24 00:28:25;;;;;;;7.82;5.35;;;;;;;;;;4964226;28;93440;-65
2023/10/24 00:30:51;;;;;;;6.45;5.68;;;;;;;;;;4964919;28;92585;-65
2023/10/24 00:33:18;;;;;;;6.97;5.70;;;;;;;;;;4965563;28;91970;-64
2023/10/24 00:35:44;;;;;;;7.70;6.50;;;;;;;;;;4963267;28;93138;-65
2023/10/24 00:38:11;;;;;;;18.27;7.20;;;;;;;;;;4971125;28;92619;-65
2023/10/24 00:40:37;;;;;;;8.10;6.30;;;;;;;;;;4962848;28;95741;-65
2023/10/24 00:43:04;;;;;;;9.13;7.00;;;;;;;;;;4967150;28;93097;-65
2023/10/24 00:45:32;;;;;;;8.95;6.95;;;;;;;;;;4964220;28;92744;-65
2023/10/24 00:47:58;;;;;;;9.40;6.93;;;;;;;;;;4961587;28;93424;-64
2023/10/24 00:50:25;;;;;;;10.45;7.57;;;;;;;;;;4964625;28;92379;-65
2023/10/24 00:52:51;;;;;;;8.88;6.80;;;;;;;;;;4966126;28;93150;-65
2023/10/24 00:55:18;;;;;;;11.18;7.97;;;;;;;;;;4960304;28;94891;-65
2023/10/24 00:57:44;;;;;;;8.60;7.72;;;;;;;;;;4964444;28;91702;-65
2023/10/24 01:00:12;;;;;;;11.05;7.53;;;;;;;;;;4970393;28;92669;-65
2023/10/24 01:02:38;;;;;;;11.35;8.35;;;;;;;;;;4960603;28;92448;-65
2023/10/24 01:05:05;;;;;;;13.57;8.40;;;;;;;;;;4965512;28;94827;-65
2023/10/24 01:07:32;;;;;;;15.38;8.95;;;;;;;;;;4958393;28;93405;-64
2023/10/24 01:09:58;;;;;;;9.55;8.07;;;;;;;;;;4965712;28;92516;-65
2023/10/24 01:12:25;;;;;;;11.00;8.52;;;;;;;;;;4965317;28;94265;-65
2023/10/24 01:14:52;;;;;;;13.07;8.68;;;;;;;;;;4964583;28;94236;-65
2023/10/24 01:17:19;;;;;;;10.60;8.27;;;;;;;;;;4959751;28;92478;-65
2023/10/24 01:19:45;;;;;;;12.52;8.45;;;;;;;;;;4966724;28;93144;-65
2023/10/24 01:22:12;;;;;;;10.23;8.90;;;;;;;;;;4967239;28;91736;-65
2023/10/24 01:24:38;;;;;;;26.80;11.15;;;;;;;;;;4965890;28;92446;-64
2023/10/24 01:27:05;;;;;;;11.43;8.80;;;;;;;;;;4957946;28;93361;-65
2023/10/24 01:29:31;;;;;;;15.10;9.20;;;;;;;;;;4964059;28;94837;-65
2023/10/24 01:31:57;;;;;;;14.82;8.90;;;;;;;;;;4964467;28;95556;-65
2023/10/24 01:34:24;;;;;;;16.35;9.95;;;;;;;;;;4965408;28;94536;-66
2023/10/24 01:36:50;;;;;;;14.57;9.40;;;;;;;;;;4966025;28;92913;-62
2023/10/24 01:39:16;;;;;;;16.30;9.77;;;;;;;;;;4963180;28;92669;-63
2023/10/24 01:41:43;;;;;;;15.98;9.18;;;;;;;;;;4966054;28;93958;-62
2023/10/24 01:44:09;;;;;;;14.00;9.25;;;;;;;;;;4959908;28;93139;-62
2023/10/24 01:46:35;;;;;;;15.75;9.60;;;;;;;;;;4966748;28;92723;-62
2023/10/24 01:49:02;;;;;;;13.13;9.27;;;;;;;;;;4964371;28;92441;-62
2023/10/24 01:51:28;;;;;;;14.35;9.63;;;;;;;;;;4964782;28;93156;-63
2023/10/24 01:53:55;;;;;;;14.32;8.63;;;;;;;;;;4963394;28;96154;-62
2023/10/24 01:56:21;;;;;;;16.20;9.13;;;;;;;;;;4964445;28;92539;-62
2023/10/24 01:58:47;;;;;;;17.45;11.18;;;;;;;;;;4957844;28;93070;-62
2023/10/24 02:01:14;;;;;;;13.02;9.65;;;;;;;;;;4965453;28;93288;-62
2023/10/24 02:03:40;;;;;;;24.88;9.90;;;;;;;;;;4962868;28;92497;-63
2023/10/24 02:06:07;;;;;;;14.57;9.00;;;;;;;;;;4954099;28;93473;-62
2023/10/24 02:08:34;;;;;;;14.73;8.95;;;;;;;;;;4963617;28;92628;-62
2023/10/24 02:11:00;;;;;;;15.63;8.95;;;;;;;;;;4965525;28;93630;-61
2023/10/24 02:13:27;;;;;;;19.23;8.82;;;;;;;;;;4964046;28;94550;-62
2023/10/24 02:15:54;;;;;;;14.65;8.65;;;;;;;;;;4962627;28;92642;-62
2023/10/24 02:18:20;;;;;;;13.95;8.23;;;;;;;;;;4961093;28;94815;-62
2023/10/24 02:20:47;;;;;;;11.65;8.07;;;;;;;;;;4966139;28;93370;-62
2023/10/24 02:23:13;;;;;;;11.82;7.43;;;;;;;;;;4957437;28;92561;-62
2023/10/24 02:25:40;;;;;;;11.50;7.55;;;;;;;;;;4965016;28;93058;-62
2023/10/24 02:28:06;;;;;;;14.65;7.65;;;;;;;;;;4965950;28;92948;-63
2023/10/24 02:30:35;;;;;;;13.40;6.65;;;;;;;;;;4964126;28;94233;-62
2023/10/24 02:33:01;;;;;;;9.45;6.75;;;;;;;;;;4964887;28;94490;-63
2023/10/24 02:35:28;;;;;;;9.48;6.80;;;;;;;;;;4965002;28;91776;-62
2023/10/24 02:37:54;;;;;;;12.65;6.53;;;;;;;;;;4957960;28;92937;-62
2023/10/24 02:40:21;;;;;;;10.73;6.72;;;;;;;;;;4962521;28;94397;-63
2023/10/24 02:42:47;;;;;;;12.38;6.30;;;;;;;;;;4960182;28;94937;-62
2023/10/24 02:45:13;;;;;;;13.55;6.63;;;;;;;;;;4962344;28;95545;-62
2023/10/24 02:47:40;;;;;;;9.70;5.75;;;;;;;;;;4965735;28;94553;-62
2023/10/24 02:50:06;;;;;;;8.18;5.05;;;;;;;;;;4962881;28;93138;-62
2023/10/24 02:52:33;;;;;;;8.07;5.07;;;;;;;;;;4964721;28;93942;-62
2023/10/24 02:55:00;;;;;;;8.52;5.65;;;;;;;;;;4963931;28;92449;-62
2023/10/24 02:57:27;;;;;;;11.48;5.25;;;;;;;;;;4958640;28;93243;-62
2023/10/24 02:59:53;;;;;;;11.77;4.90;;;;;;;;;;4963527;28;92881;-62
2023/10/24 03:02:20;;;;;;;10.70;5.03;;;;;;;;;;4957434;28;92632;-62
2023/10/24 03:04:46;;;;;;;7.88;5.38;;;;;;;;;;4964997;28;93139;-62
2023/10/24 03:07:13;;;;;;;12.43;6.07;;;;;;;;;;4957200;28;95805;-62
2023/10/24 03:09:39;;;;;;;9.00;5.45;;;;;;;;;;4967351;28;92397;-62
2023/10/24 03:12:09;;;;;;;14.40;5.60;;;;;;;;;;4962749;28;94448;-62
2023/10/24 03:14:36;;;;;;;7.70;5.15;;;;;;;;;;4963512;28;92467;-63
2023/10/24 03:17:03;;;;;;;10.05;5.50;;;;;;;;;;4958201;28;94506;-62
2023/10/24 03:19:31;;;;;;;8.07;5.47;;;;;;;;;;4959786;28;93370;-62
2023/10/24 03:21:58;;;;;;;9.43;5.25;;;;;;;;;;4962593;28;92436;-62
2023/10/24 03:24:26;;;;;;;6.90;5.25;;;;;;;;;;4963053;28;93136;-63
2023/10/24 03:26:53;;;;;;;9.00;5.70;;;;;;;;;;4962085;28;93399;-62
2023/10/24 03:29:19;;;;;;;9.32;6.07;;;;;;;;;;4968096;28;92754;-62
2023/10/24 03:31:45;;;;;;;10.20;6.10;;;;;;;;;;4960006;28;95856;-62
2023/10/24 03:34:12;;;;;;;10.77;6.90;;;;;;;;;;4964672;28;92988;-63
2023/10/24 03:36:38;;;;;;;10.10;6.03;;;;;;;;;;4962041;28;92536;-62
2023/10/24 03:39:05;;;;;;;7.72;6.00;;;;;;;;;;4959789;28;93360;-62
2023/10/24 03:41:31;;;;;;;9.00;5.10;;;;;;;;;;4961957;28;92345;-62
2023/10/24 03:43:58;;;;;;;6.20;5.40;;;;;;;;;;4963612;28;94188;-62
2023/10/24 03:46:24;;;;;;;6.38;5.68;;;;;;;;;;4962647;28;93755;-62
2023/10/24 03:48:51;;;;;;;8.18;5.70;;;;;;;;;;4965058;28;91779;-63
2023/10/24 03:51:17;;;;;;;7.40;5.82;;;;;;;;;;4964408;28;92854;-62
2023/10/24 03:53:43;;;;;;;9.15;6.22;;;;;;;;;;4964709;28;92499;-62
2023/10/24 03:56:09;;;;;;;8.73;5.82;;;;;;;;;;4963901;28;94783;-62
2023/10/24 03:58:36;;;;;;;7.22;5.90;;;;;;;;;;4956683;28;92499;-65
2023/10/24 04:01:05;;;;;;;9.80;5.88;;;;;;;;;;4956757;28;92449;-64
2023/10/24 04:03:32;;;;;;;8.43;6.07;;;;;;;;;;4962854;28;93336;-65
2023/10/24 04:05:59;;;;;;;8.63;6.55;;;;;;;;;;4961732;28;93392;-65
2023/10/24 04:08:25;;;;;;;8.45;6.28;;;;;;;;;;4964506;28;92500;-64
2023/10/24 04:10:51;;;;;;;8.43;6.35;;;;;;;;;;4961798;28;93441;-65
2023/10/24 04:13:18;;;;;;;8.73;7.28;;;;;;;;;;4967884;28;92898;-65
2023/10/24 04:15:44;;;;;;;10.48;6.82;;;;;;;;;;4960740;28;92751;-65
2023/10/24 04:18:11;;;;;;;8.10;6.95;;;;;;;;;;4961779;28;94689;-64
2023/10/24 04:20:41;;;;;;;13.65;8.25;;;;;;;;;;4959606;28;95026;-65
2023/10/24 04:23:11;;;;;;;12.15;7.70;;;;;;;;;;4963561;28;94265;-65
2023/10/24 04:25:38;;;;;;;9.65;7.75;;;;;;;;;;4957190;28;93423;-65
2023/10/24 04:28:04;;;;;;;18.73;8.43;;;;;;;;;;4964593;28;92542;-64
2023/10/24 04:30:30;;;;;;;12.85;9.18;;;;;;;;;;4962528;28;93076;-65
2023/10/24 04:32:57;;;;;;;10.93;8.57;;;;;;;;;;4965559;28;94462;-64
2023/10/24 04:35:23;;;;;;;15.68;9.30;;;;;;;;;;4964336;28;92614;-65
2023/10/24 04:37:50;;;;;;;12.25;8.80;;;;;;;;;;4957274;28;92714;-65
2023/10/24 04:40:16;;;;;;;15.25;8.88;;;;;;;;;;4953835;28;92411;-65
2023/10/24 04:42:43;;;;;;;16.63;9.43;;;;;;;;;;4964213;28;93086;-65
2023/10/24 04:45:10;;;;;;;16.55;9.27;;;;;;;;;;4959459;28;95757;-65
2023/10/24 04:47:36;;;;;;;11.50;8.35;;;;;;;;;;4963671;28;92516;-65
2023/10/24 04:50:06;;;;;;;15.07;8.75;;;;;;;;;;4964380;28;93501;-64
2023/10/24 04:52:32;;;;;;;13.50;8.35;;;;;;;;;;4966342;28;93254;-65
2023/10/24 04:54:58;;;;;;;14.57;8.75;;;;;;;;;;4963971;28;92476;-65
2023/10/24 04:57:25;;;;;;;13.63;8.13;;;;;;;;;;4967229;28;94371;-64
2023/10/24 04:59:51;;;;;;;13.60;8.63;;;;;;;;;;4959114;28;92359;-65
2023/10/24 05:02:18;;;;;;;9.25;7.63;;;;;;;;;;4961401;28;94296;-66
2023/10/24 05:04:44;;;;;;;12.57;8.25;;;;;;;;;;4966834;28;94467;-65
2023/10/24 05:07:11;;;;;;;10.65;8.18;;;;;;;;;;4963229;28;92502;-64
2023/10/24 05:09:37;;;;;;;13.38;8.50;;;;;;;;;;4964003;28;94839;-65
2023/10/24 05:12:05;;;;;;;14.18;7.93;;;;;;;;;;4967445;28;93462;-65
2023/10/24 05:14:31;;;;;;;9.25;7.40;;;;;;;;;;4957878;28;92589;-64
2023/10/24 05:16:57;;;;;;;9.02;7.45;;;;;;;;;;4969063;28;94132;-64
2023/10/24 05:19:24;;;;;;;17.98;9.05;;;;;;;;;;4964470;28;92569;-65
2023/10/24 05:21:50;;;;;;;10.10;7.90;;;;;;;;;;4959334;28;93294;-65
2023/10/24 05:24:17;;;;;;;10.73;8.77;;;;;;;;;;4966889;28;93401;-64
2023/10/24 05:26:43;;;;;;;12.32;8.52;;;;;;;;;;4959720;28;94924;-65
2023/10/24 05:29:09;;;;;;;10.70;8.30;;;;;;;;;;4964994;28;93493;-64
2023/10/24 05:31:36;;;;;;;16.52;8.35;;;;;;;;;;4964879;28;93464;-64
2023/10/24 05:34:02;;;;;;;9.63;8.23;;;;;;;;;;4963584;28;94901;-64
2023/10/24 05:36:29;;;;;;;9.60;7.95;;;;;;;;;;4964691;28;96494;-65
2023/10/24 05:38:55;;;;;;;11.90;8.27;;;;;;;;;;4969714;28;93526;-64
2023/10/24 05:41:22;;;;;;;14.00;8.38;;;;;;;;;;4963488;28;93074;-65
2023/10/24 05:43:48;;;;;;;12.93;8.90;;;;;;;;;;4965722;28;93537;-64
2023/10/24 05:46:14;;;;;;;12.35;8.82;;;;;;;;;;4964113;28;92555;-64
2023/10/24 05:48:41;;;;;;;11.25;8.30;;;;;;;;;;4965789;28;93168;-64
2023/10/24 05:51:10;;;;;;;10.18;8.07;;;;;;;;;;4965099;28;93738;-64
2023/10/24 05:53:36;;;;;;;11.15;8.18;;;;;;;;;;4960918;28;92448;-64
2023/10/24 05:56:03;;;;;;;10.15;7.63;;;;;;;;;;4964917;28;93142;-64
2023/10/24 05:58:29;;;;;;;10.52;7.88;;;;;;;;;;4960677;28;95530;-64
2023/10/24 06:00:56;;;;;;;10.65;8.32;;;;;;;;;;4969590;28;92600;-65
2023/10/24 06:03:22;;;;;;;13.15;8.70;;;;;;;;;;4962467;28;93467;-64
2023/10/24 06:05:52;;;;;;;8.27;7.15;;;;;;;;;;4963120;28;92868;-65
2023/10/24 06:08:19;;;;;;;8.60;7.65;;;;;;;;;;4965914;28;93126;-64
2023/10/24 06:10:53;;;;;;;10.25;7.47;;;;;;;;;;4963591;28;93391;-64
2023/10/24 06:13:20;;;;;;;9.30;7.30;;;;;;;;;;4958076;28;92758;-64
2023/10/24 06:15:46;;;;;;;8.95;7.47;;;;;;;;;;4966332;28;93292;-64
2023/10/24 06:18:12;;;;;;;11.50;7.05;;;;;;;;;;4963867;28;93419;-63
2023/10/24 06:20:39;;;;;;;11.38;7.88;;;;;;;;;;4964394;28;92671;-63
2023/10/24 06:23:07;;;;;;;13.02;7.32;;;;;;;;;;4965605;28;94766;-62
2023/10/24 06:25:40;;;;;;;8.85;7.15;;;;;;;;;;4963377;28;92556;-63
2023/10/24 06:28:07;;;;;;;9.35;7.50;;;;;;;;;;4965161;28;93175;-62
2023/10/24 06:30:34;;;;;;;9.05;6.72;;;;;;;;;;4959496;28;93418;-62
2023/10/24 06:33:01;;;;;;;9.55;7.35;;;;;;;;;;4964898;28;92577;-62
2023/10/24 06:35:28;;;;;;;8.32;6.80;;;;;;;;;;4963045;28;93169;-62
2023/10/24 06:37:55;;;;;;;10.48;7.50;;;;;;;;;;4965743;28;94491;-62
2023/10/24 06:40:22;;;;;;;9.25;7.43;;;;;;;;;;4959610;28;91680;-63
2023/10/24 06:42:49;;;;;;;7.88;7.05;;;;;;;;;;4958578;28;92431;-62
2023/10/24 06:45:16;;;;;;;8.05;7.05;;;;;;;;;;4967553;28;94269;-63
2023/10/24 06:47:42;;;;;;;9.30;7.40;;;;;;;;;;4962731;28;94899;-61
2023/10/24 06:50:09;;;;;;;7.68;6.57;;;;;;;;;;4962701;28;94516;-62
2023/10/24 06:52:35;;;;;;;8.07;6.95;;;;;;;;;;4962941;28;92583;-62
2023/10/24 06:55:04;;;;;;;9.13;7.30;;;;;;;;;;4964722;28;94119;-62
2023/10/24 06:57:31;;;;;;;7.25;6.55;;;;;;;;;;4962438;28;94401;-62
2023/10/24 06:59:57;;;;;;;7.78;6.68;;;;;;;;;;4966258;28;92429;-62
2023/10/24 07:02:23;;;;;;;8.00;7.20;;;;;;;;;;4957304;28;93073;-62
2023/10/24 07:04:50;;;;;;;7.68;6.63;;;;;;;;;;4965987;28;92673;-62
2023/10/24 07:07:16;;;;;;;9.00;6.78;;;;;;;;;;4965359;28;92683;-62
2023/10/24 07:09:43;;;;;;;8.60;7.43;;;;;;;;;;4964148;28;93454;-63
2023/10/24 07:12:09;;;;;;;12.32;7.88;;;;;;;;;;4962580;28;94853;-62
2023/10/24 07:14:35;;;;;;;10.13;8.52;;;;;;;;;;4965209;28;95530;-62
2023/10/24 07:17:02;;;;;;;11.73;8.13;;;;;;;;;;4961375;28;92429;-62
2023/10/24 07:19:28;;;;;;;14.38;8.40;;;;;;;;;;4965700;28;92440;-62
2023/10/24 07:21:55;;;;;;;11.45;8.38;;;;;;;;;;4961980;28;93215;-61
2023/10/24 07:24:21;;;;;;;11.02;7.95;;;;;;;;;;4961661;28;93408;-62
2023/10/24 07:26:47;;;;;;;13.45;8.38;;;;;;;;;;4964636;28;92837;-62
2023/10/24 07:29:14;;;;;;;10.38;9.13;;;;;;;;;;4958497;28;91634;-63
2023/10/24 07:31:41;;;;;;;13.00;9.13;;;;;;;;;;4963253;28;92455;-62
2023/10/24 07:34:07;;;;;;;10.02;8.15;;;;;;;;;;4962469;28;94505;-61
2023/10/24 07:36:35;;;;;;;10.23;8.20;;;;;;;;;;4960647;28;97152;-62
2023/10/24 07:39:01;;;;;;;12.30;8.80;;;;;;;;;;4964948;28;92680;-63
2023/10/24 07:41:27;;;;;;;12.73;8.50;;;;;;;;;;4961859;28;93128;-62
2023/10/24 07:43:54;;;;;;;13.93;8.77;;;;;;;;;;4960972;28;93715;-62
2023/10/24 07:46:22;;;;;;;9.45;8.32;;;;;;;;;;4958529;28;92904;-62
2023/10/24 07:48:51;;;;;;;11.57;9.18;;;;;;;;;;4966073;28;94290;-63
2023/10/24 07:51:18;;;;;;;15.45;9.00;;;;;;;;;;4962510;28;92702;-62
2023/10/24 07:53:44;;;;;;;12.05;9.05;;;;;;;;;;4961950;28;93043;-62
2023/10/24 07:56:11;;;;;;;17.95;10.32;;;;;;;;;;4960454;28;93377;-62
2023/10/24 07:58:37;;;;;;;14.40;10.07;;;;;;;;;;4960532;28;93022;-62
2023/10/24 08:01:04;;;;;;;14.48;10.10;;;;;;;;;;4961820;28;95090;-62
2023/10/24 08:03:30;;;;;;;18.35;10.38;;;;;;;;;;4960993;28;94373;-62
2023/10/24 08:05:57;;;;;;;13.75;10.73;;;;;;;;;;4956042;28;92524;-62
2023/10/24 08:08:23;;;;;;;13.25;10.30;;;;;;;;;;4961048;28;93289;-61
2023/10/24 08:10:50;;;;;;;15.07;10.10;;;;;;;;;;4965897;28;94876;-62
2023/10/24 08:13:19;;;;;;;14.75;10.20;;;;;;;;;;4960638;28;92907;-62
2023/10/24 08:15:48;;;;;;;16.98;10.10;;;;;;;;;;4961375;28;93910;-62
2023/10/24 08:18:14;;;;;;;17.60;10.02;;;;;;;;;;4960282;28;91633;-62
2023/10/24 08:20:40;;;;;;;13.32;10.38;;;;;;;;;;4958967;28;95180;-63
2023/10/24 08:23:07;;;;;;;13.68;9.93;;;;;;;;;;4964100;28;94071;-62
2023/10/24 08:25:34;;;;;;;15.50;10.70;;;;;;;;;;4959059;28;94777;-62
2023/10/24 08:28:01;;;;;;;15.98;10.35;;;;;;;;;;4964383;28;96591;-61
2023/10/24 08:30:31;;;;;;;15.50;10.82;;;;;;;;;;4960527;28;94337;-62
2023/10/24 08:32:58;;;;;;;13.60;10.70;;;;;;;;;;4963167;28;92464;-61
2023/10/24 08:35:24;;;;;;;11.35;9.68;;;;;;;;;;4966576;28;93613;-61
2023/10/24 08:37:51;;;;;;;12.30;10.55;;;;;;;;;;4964595;28;92627;-61
2023/10/24 08:40:17;;;;;;;17.15;10.75;;;;;;;;;;4966179;28;93209;-62
2023/10/24 08:42:44;;;;;;;13.57;9.70;;;;;;;;;;4965809;28;94954;-61
2023/10/24 08:45:11;;;;;;;14.77;10.30;;;;;;;;;;4957825;28;92617;-61
2023/10/24 08:47:37;;;;;;;17.20;10.20;;;;;;;;;;4962240;28;94160;-61
2023/10/24 08:50:05;;;;;;;14.05;9.43;;;;;;;;;;4965062;28;96110;-61
2023/10/24 08:52:31;;;;;;;16.75;10.10;;;;;;;;;;4964243;28;92359;-61
2023/10/24 08:55:03;;;;;;;18.90;10.80;;;;;;;;;;4962983;28;92678;-62
2023/10/24 08:57:33;;;;;;;11.32;9.40;;;;;;;;;;4959777;28;92470;-62
2023/10/24 09:00:00;;;;;;;13.07;9.83;;;;;;;;;;4960399;28;93180;-61
2023/10/24 09:02:28;;;;;;;13.95;9.88;;;;;;;;;;4960133;28;93407;-62
2023/10/24 09:04:54;;;;;;;16.60;9.73;;;;;;;;;;4962775;28;92695;-61
2023/10/24 09:07:20;;;;;;;12.82;9.77;;;;;;;;;;4966541;28;94272;-61
2023/10/24 09:09:47;;;;;;;16.20;10.07;;;;;;;;;;4964449;28;93429;-62
2023/10/24 09:12:15;;;;;;;10.73;9.43;;;;;;;;;;4965230;28;92372;-61
2023/10/24 09:14:46;;;;;;;15.30;9.48;;;;;;;;;;4956950;28;96142;-62
2023/10/24 09:17:20;;;;;;;12.23;8.40;;;;;;;;;;4963143;28;93357;-61
2023/10/24 09:19:46;;;;;;;12.73;7.85;;;;;;;;;;4965138;28;92410;-62
2023/10/24 09:22:16;;;;;;;10.38;8.40;;;;;;;;;;4963143;28;93221;-61
2023/10/24 09:24:43;;;;;;;16.80;8.52;;;;;;;;;;4965259;28;92562;-61
2023/10/24 09:27:10;;;;;;;10.57;8.02;;;;;;;;;;4963147;28;93118;-62
2023/10/24 09:29:37;;;;;;;13.02;7.63;;;;;;;;;;4966112;28;93457;-62
2023/10/24 09:32:03;;;;;;;9.32;7.53;;;;;;;;;;4964957;28;91733;-62
2023/10/24 09:34:32;;;;;;;9.98;7.15;;;;;;;;;;4960328;28;93434;-62
2023/10/24 09:37:05;;;;;;;13.18;7.60;;;;;;;;;;4962525;28;93697;-61
2023/10/24 09:39:32;;;;;;;11.25;6.63;;;;;;;;;;4958344;28;95167;-62
2023/10/24 09:41:58;;;;;;;8.02;6.70;;;;;;;;;;4966430;28;94402;-62
2023/10/24 09:44:25;;;;;;;8.18;6.55;;;;;;;;;;4961510;28;92522;-62
2023/10/24 09:46:53;;;;;;;9.63;5.82;;;;;;;;;;4964638;28;93282;-63
2023/10/24 09:49:19;;;;;;;8.40;5.97;;;;;;;;;;4960230;28;93413;-66
2023/10/24 09:51:46;;;;;;;27.00;5.95;;;;;;;;;;4962850;28;92462;-66
2023/10/24 09:54:12;;;;;;;8.05;5.82;;;;;;;;;;4965198;28;93266;-66
2023/10/24 09:56:39;;;;;;;9.75;5.72;;;;;;;;;;4963851;28;92985;-65
2023/10/24 09:59:07;;;;;;;5.57;4.90;;;;;;;;;;4969647;28;92514;-65
2023/10/24 10:01:34;;;;;;;7.20;5.22;;;;;;;;;;4966663;28;93425;-65
2023/10/24 10:04:02;;;;;;;11.65;5.50;;;;;;;;;;4964524;28;95039;-65
2023/10/24 10:06:29;;;;;;;9.48;6.18;;;;;;;;;;4963075;28;95537;-66
2023/10/24 10:09:18;;;;;;;7.35;5.20;;;;;;;;;;4962555;28;92542;-65
2023/10/24 10:11:45;;;;;;;6.03;5.32;;;;;;;;;;4957581;28;92651;-65
2023/10/24 10:14:44;;;;;;;7.10;5.55;;;;;;;;;;4964586;28;94026;-65
2023/10/24 10:17:10;;;;;;;9.68;5.43;;;;;;;;;;4951676;28;93350;-65
2023/10/24 10:19:45;;;;;;;7.25;5.05;;;;;;;;;;4966478;28;92413;-65
2023/10/24 10:22:26;;;;;;;11.70;6.07;;;;;;;;;;4964085;28;93106;-64
2023/10/24 10:24:55;;;;;;;11.90;6.05;;;;;;;;;;4963340;28;92454;-65
2023/10/24 10:27:31;;;;;;;9.55;5.50;;;;;;;;;;4962028;28;93527;-65
2023/10/24 10:30:03;;;;;;;6.50;5.45;;;;;;;;;;4959985;28;96133;-65
2023/10/24 10:33:09;;;;;;;9.68;5.40;;;;;;;;;;4962993;28;92336;-64
2023/10/24 10:35:56;;;;;;;10.60;5.68;;;;;;;;;;4959773;28;93270;-64
2023/10/24 10:38:38;;;;;;;9.75;6.00;;;;;;;;;;4963497;28;94595;-65
2023/10/24 10:41:33;;;;;;;7.80;5.50;;;;;;;;;;4959693;28;92420;-65
2023/10/24 10:44:01;;;;;;;10.27;5.70;;;;;;;;;;4954555;28;93084;-65
2023/10/24 10:46:29;;;;;;;8.20;5.03;;;;;;;;;;4969347;28;93231;-65
2023/10/24 10:48:56;;;;;;;8.23;4.60;;;;;;;;;;4952657;28;93209;-65
2023/10/24 10:51:26;;;;;;;6.97;4.88;;;;;;;;;;4962955;28;93341;-65
2023/10/24 10:54:12;;;;;;;13.88;4.97;;;;;;;;;;4963603;28;92426;-64
2023/10/24 10:56:39;;;;;;;6.13;4.22;;;;;;;;;;4958358;28;95287;-64
2023/10/24 10:59:06;;;;;;;7.30;5.25;;;;;;;;;;4962346;28;95004;-65
2023/10/24 11:01:33;;;;;;;6.95;4.65;;;;;;;;;;4965648;28;92506;-65
2023/10/24 11:04:00;;;;;;;15.13;5.20;;;;;;;;;;4961947;28;93012;-65
2023/10/24 11:06:27;;;;;;;6.03;4.72;;;;;;;;;;4964993;28;94454;-65
2023/10/24 11:09:10;;;;;;;6.30;4.20;;;;;;;;;;4956309;28;92520;-65
2023/10/24 11:11:39;;;;;;;7.60;4.82;;;;;;;;;;4958762;28;93291;-65
2023/10/24 11:14:13;;;;;;;8.43;4.70;;;;;;;;;;4958564;28;91743;-65
2023/10/24 11:16:43;;;;;;;10.07;4.55;;;;;;;;;;4959228;28;92571;-65
2023/10/24 11:19:19;;;;;;;7.82;4.35;;;;;;;;;;4964391;28;93585;-65
2023/10/24 11:21:47;;;;;;;12.43;4.22;;;;;;;;;;4958222;28;95337;-65
2023/10/24 11:24:20;;;;;;;9.35;4.70;;;;;;;;;;4962820;28;95545;-65
2023/10/24 11:26:57;;;;;;;5.05;3.80;;;;;;;;;;4961166;28;92669;-65
2023/10/24 11:29:23;;;;;;;4.43;3.70;;;;;;;;;;4963055;28;92398;-64
2023/10/24 11:31:49;;;;;;;6.20;3.97;;;;;;;;;;4966324;28;93138;-65
2023/10/24 11:34:18;;;;;;;9.02;4.18;;;;;;;;;;4964181;28;92676;-65
2023/10/24 11:36:45;;;;;;;6.30;4.32;;;;;;;;;;4962190;28;93366;-65
2023/10/24 11:39:14;;;;;;;8.13;4.55;;;;;;;;;;4964543;28;92688;-66
2023/10/24 11:41:44;;;;;;;10.40;4.40;;;;;;;;;;4961817;28;92455;-66
2023/10/24 11:44:15;;;;;;;6.85;3.78;;;;;;;;;;4964448;28;92949;-66
2023/10/24 11:46:42;;;;;;;11.95;4.60;;;;;;;;;;4958973;28;94869;-65
2023/10/24 11:49:10;;;;;;;8.68;4.40;;;;;;;;;;4961726;28;92596;-64
2023/10/24 11:51:38;;;;;;;9.80;3.97;;;;;;;;;;4968346;28;93292;-65
2023/10/24 11:54:06;;;;;;;9.93;4.53;;;;;;;;;;4961846;28;92620;-65
2023/10/24 11:56:32;;;;;;;8.25;4.47;;;;;;;;;;4965755;28;94253;-65
2023/10/24 11:59:00;;;;;;;6.60;4.22;;;;;;;;;;4965953;28;94434;-64
2023/10/24 12:01:31;;;;;;;5.60;4.00;;;;;;;;;;4967216;28;92507;-65
2023/10/24 12:03:58;;;;;;;5.93;4.55;;;;;;;;;;4968323;28;93112;-65
2023/10/24 12:06:29;;;;;;;5.45;4.38;;;;;;;;;;4963846;28;92413;-64
2023/10/24 12:08:57;;;;;;;8.27;5.05;;;;;;;;;;4968451;28;92590;-63
2023/10/24 12:11:24;;;;;;;7.40;5.00;;;;;;;;;;4964791;28;94926;-62
2023/10/24 12:13:51;;;;;;;5.30;4.78;;;;;;;;;;4968829;28;93765;-62
2023/10/24 12:16:17;;;;;;;11.43;4.47;;;;;;;;;;4966314;28;93728;-63
2023/10/24 12:18:44;;;;;;;7.07;4.40;;;;;;;;;;4965368;28;93444;-62
2023/10/24 12:21:11;;;;;;;10.43;5.03;;;;;;;;;;4966386;28;92783;-63
2023/10/24 12:23:38;;;;;;;6.80;4.88;;;;;;;;;;4954331;28;92992;-62
2023/10/24 12:26:05;;;;;;;6.32;4.22;;;;;;;;;;4964333;28;93520;-63
2023/10/24 12:28:36;;;;;;;5.78;4.70;;;;;;;;;;4968109;28;91793;-63
2023/10/24 12:31:03;;;;;;;4.80;4.40;;;;;;;;;;4964512;28;93645;-63
2023/10/24 12:33:33;;;;;;;5.88;4.15;;;;;;;;;;4967311;28;93566;-62
2023/10/24 12:36:00;;;;;;;6.03;4.20;;;;;;;;;;4966886;28;94932;-63
2023/10/24 12:38:28;;;;;;;8.15;4.25;;;;;;;;;;4966367;28;93501;-62
2023/10/24 12:40:54;;;;;;;8.32;4.10;;;;;;;;;;4961591;28;94970;-62
2023/10/24 12:43:21;;;;;;;5.10;4.20;;;;;;;;;;4960541;28;94150;-62
2023/10/24 12:45:47;;;;;;;4.35;3.63;;;;;;;;;;4963866;28;93720;-62
2023/10/24 12:48:14;;;;;;;4.80;3.78;;;;;;;;;;4964457;28;92376;-62
2023/10/24 12:50:44;;;;;;;6.78;3.45;;;;;;;;;;4966567;28;95387;-62
2023/10/24 12:53:12;;;;;;;6.13;3.88;;;;;;;;;;4964994;28;92957;-63
2023/10/24 12:55:39;;;;;;;4.90;3.05;;;;;;;;;;4967630;28;92440;-62
2023/10/24 12:58:05;;;;;;;12.98;3.85;;;;;;;;;;4970673;28;93167;-62
2023/10/24 13:00:32;;;;;;;6.70;3.65;;;;;;;;;;4966046;28;94982;-62
2023/10/24 13:03:02;;;;;;;5.13;3.07;;;;;;;;;;4963689;28;95455;-63
2023/10/24 13:05:42;;;;;;;5.82;3.67;;;;;;;;;;4961160;28;93391;-62
2023/10/24 13:08:08;;;;;;;4.60;3.30;;;;;;;;;;4958671;28;92527;-62
2023/10/24 13:10:35;;;;;;;4.88;3.30;;;;;;;;;;4960146;28;95328;-63
2023/10/24 13:13:01;;;;;;;5.00;3.10;;;;;;;;;;4966625;28;93535;-63
2023/10/24 13:15:29;;;;;;;5.18;3.20;;;;;;;;;;4966717;28;92631;-62
2023/10/24 13:17:56;;;;;;;6.03;2.97;;;;;;;;;;4965853;28;93019;-63
2023/10/24 13:20:22;;;;;;;3.38;2.90;;;;;;;;;;4964925;28;93487;-65
2023/10/24 13:22:51;;;;;;;9.40;3.28;;;;;;;;;;4959188;28;93025;-65
2023/10/24 13:25:17;;;;;;;5.63;2.60;;;;;;;;;;4962529;28;94926;-64
2023/10/24 13:27:43;;;;;;;5.30;3.47;;;;;;;;;;4965772;28;92438;-65
2023/10/24 13:30:10;;;;;;;5.68;2.90;;;;;;;;;;4960026;28;94161;-65
2023/10/24 13:32:40;;;;;;;3.95;3.20;;;;;;;;;;4960355;28;93503;-65
2023/10/24 13:35:07;;;;;;;4.65;3.25;;;;;;;;;;4960258;28;92432;-64
2023/10/24 13:37:36;;;;;;;4.10;3.25;;;;;;;;;;4959738;28;92940;-64
2023/10/24 13:40:03;;;;;;;3.35;2.80;;;;;;;;;;4962291;28;93457;-64
2023/10/24 13:42:30;;;;;;;6.30;2.90;;;;;;;;;;4967287;28;91800;-65
2023/10/24 13:44:56;;;;;;;6.07;2.80;;;;;;;;;;4965083;28;93357;-65
2023/10/24 13:47:23;;;;;;;5.53;2.65;;;;;;;;;;4965205;28;92460;-64
2023/10/24 13:49:51;;;;;;;4.90;2.50;;;;;;;;;;4963224;28;94778;-65
2023/10/24 13:52:18;;;;;;;2.65;2.42;;;;;;;;;;4965941;28;94096;-65
2023/10/24 13:54:46;;;;;;;2.72;2.05;;;;;;;;;;4963777;28;92417;-65
2023/10/24 13:57:12;;;;;;;6.00;2.40;;;;;;;;;;4961878;28;93079;-65
2023/10/24 13:59:39;;;;;;;3.25;2.30;;;;;;;;;;4967140;28;94395;-65
2023/10/24 14:02:06;;;;;;;2.72;2.47;;;;;;;;;;4969437;28;92593;-65
2023/10/24 14:04:32;;;;;;;4.10;2.42;;;;;;;;;;4963641;28;93481;-65
2023/10/24 14:07:00;;;;;;;5.30;2.28;;;;;;;;;;4965827;28;92779;-65
2023/10/24 14:09:27;;;;;;;3.67;2.45;;;;;;;;;;4960460;28;95468;-65
2023/10/24 14:11:55;;;;;;;4.40;2.38;;;;;;;;;;4962214;28;94505;-65
2023/10/24 14:14:23;;;;;;;4.57;2.20;;;;;;;;;;4964478;28;95604;-65
2023/10/24 14:16:49;;;;;;;5.47;2.30;;;;;;;;;;4964168;28;96764;-64
2023/10/24 14:19:16;;;;;;;5.47;2.95;;;;;;;;;;4960123;28;93490;-64
2023/10/24 14:21:42;;;;;;;4.40;2.13;;;;;;;;;;4960092;28;92485;-64
2023/10/24 14:24:08;;;;;;;4.38;2.42;;;;;;;;;;4962284;28;93132;-65
2023/10/24 14:26:35;;;;;;;3.20;2.40;;;;;;;;;;4965635;28;92526;-65
2023/10/24 14:29:01;;;;;;;4.40;2.47;;;;;;;;;;4963031;28;93114;-62
2023/10/24 14:31:28;;;;;;;4.03;2.72;;;;;;;;;;4965688;28;92505;-63
2023/10/24 14:33:56;;;;;;;4.97;2.55;;;;;;;;;;4958048;28;92545;-62
2023/10/24 14:36:23;;;;;;;4.63;3.15;;;;;;;;;;4963949;28;94114;-63
2023/10/24 14:38:49;;;;;;;5.97;3.20;;;;;;;;;;4959379;28;96133;-62